Time;durP1;ratioP1;P1;durP2;ratioP2;P2;SDS_P1;SDS_P2;PMS_P1;PMS_P2;Temp;Humidity;BMP_temperature;BMP_pressure;BME280_temperature;BME280_humidity;BME280_pressure;Samples;Min_cycle;Max_cycle;Signal;HPM_P1;HPM_P2
2021/10/26 00:01:57;;;;;;;11.77;7.60;;;;;;;10.50;81.70;101070.19;5076481;28;20177;-73
2021/10/26 00:04:22;;;;;;;13.77;8.50;;;;;;;10.34;81.82;101060.25;5094634;28;20177;-72
2021/10/26 00:06:48;;;;;;;9.03;7.00;;;;;;;10.56;81.29;101067.22;5093526;28;20170;-73
2021/10/26 00:09:15;;;;;;;12.23;7.60;;;;;;;10.18;83.25;101063.72;5076512;28;20559;-72
2021/10/26 00:11:41;;;;;;;11.63;7.97;;;;;;;10.27;82.33;101053.50;5094794;28;20170;-73
2021/10/26 00:14:06;;;;;;;12.03;7.70;;;;;;;10.42;82.29;101049.22;5094655;28;20178;-73
2021/10/26 00:16:31;;;;;;;11.50;7.40;;;;;;;10.51;81.89;101053.25;5094650;28;20563;-73
2021/10/26 00:18:56;;;;;;;11.83;8.00;;;;;;;10.14;82.36;101040.78;5094189;28;20250;-72
2021/10/26 00:21:22;;;;;;;12.13;7.27;;;;;;;10.34;82.64;101049.59;5094501;28;20226;-72
2021/10/26 00:23:47;;;;;;;11.60;7.97;;;;;;;10.62;81.63;101057.09;5094438;28;20181;-72
2021/10/26 00:26:12;;;;;;;14.30;7.70;;;;;;;10.18;81.75;101040.56;5094210;28;20193;-72
2021/10/26 00:28:38;;;;;;;12.87;8.30;;;;;;;10.40;82.69;101051.09;5097864;28;20193;-72
2021/10/26 00:31:03;;;;;;;13.97;7.73;;;;;;;10.66;81.13;101049.81;5095617;28;20177;-72
2021/10/26 00:33:29;;;;;;;12.87;7.37;;;;;;;10.74;81.09;101052.09;5093168;28;20177;-73
2021/10/26 00:35:54;;;;;;;11.47;7.40;;;;;;;10.71;79.75;101034.44;5093039;28;20197;-72
2021/10/26 00:38:19;;;;;;;11.70;7.50;;;;;;;10.62;80.40;101025.09;5092579;28;20202;-74
2021/10/26 00:40:46;;;;;;;10.90;7.77;;;;;;;10.89;79.32;101032.66;5092580;28;20183;-73
2021/10/26 00:43:11;;;;;;;17.63;8.03;;;;;;;11.03;79.10;101029.25;5092944;28;20630;-73
2021/10/26 00:45:36;;;;;;;11.33;7.33;;;;;;;11.13;78.49;101034.03;5092031;28;20173;-73
2021/10/26 00:48:02;;;;;;;13.23;7.10;;;;;;;11.26;78.60;101023.59;5093733;28;20662;-72
2021/10/26 00:50:28;;;;;;;11.43;6.90;;;;;;;11.16;78.92;101033.91;5092561;28;20181;-72
2021/10/26 00:52:53;;;;;;;14.43;7.33;;;;;;;11.13;78.72;101022.47;5093878;28;20185;-73
2021/10/26 00:55:19;;;;;;;11.83;6.60;;;;;;;11.31;77.68;101032.22;5092343;28;20260;-73
2021/10/26 00:57:45;;;;;;;13.07;7.23;;;;;;;10.89;79.35;101017.50;5092258;28;20192;-73
2021/10/26 01:00:11;;;;;;;11.17;6.63;;;;;;;11.38;77.84;101030.09;5093628;28;20247;-73
2021/10/26 01:02:36;;;;;;;10.73;6.87;;;;;;;10.80;80.09;101025.13;5093299;28;20182;-73
2021/10/26 01:05:02;;;;;;;12.93;7.23;;;;;;;10.85;79.01;101015.91;5092463;28;20226;-73
2021/10/26 01:07:27;;;;;;;15.97;7.80;;;;;;;10.59;79.76;101006.56;5092162;28;20197;-72
2021/10/26 01:09:53;;;;;;;12.77;7.47;;;;;;;10.87;79.26;101019.38;5092399;28;20174;-73
2021/10/26 01:12:18;;;;;;;11.73;7.50;;;;;;;10.96;78.27;101018.03;5093116;28;20676;-72
2021/10/26 01:14:45;;;;;;;12.53;7.33;;;;;;;11.19;77.66;101027.53;5097227;28;20204;-73
2021/10/26 01:17:12;;;;;;;11.83;7.60;;;;;;;11.09;78.24;101023.59;5093786;28;20279;-72
2021/10/26 01:19:45;;;;;;;9.57;6.87;;;;;;;10.99;79.00;101030.38;5092046;28;20632;-73
2021/10/26 01:22:10;;;;;;;9.93;7.33;;;;;;;11.26;78.67;101042.28;5092325;28;20272;-72
2021/10/26 01:24:36;;;;;;;17.07;7.37;;;;;;;11.14;78.89;101026.88;5093160;28;20212;-73
2021/10/26 01:27:01;;;;;;;12.97;7.10;;;;;;;11.20;78.93;101029.25;5093134;28;20189;-73
2021/10/26 01:29:26;;;;;;;10.83;7.03;;;;;;;11.36;78.27;101027.50;5093414;28;20185;-73
2021/10/26 01:31:52;;;;;;;13.63;6.83;;;;;;;11.46;78.00;101034.06;5093211;28;20181;-73
2021/10/26 01:34:17;;;;;;;12.90;7.03;;;;;;;11.44;77.56;101027.09;5093413;28;20188;-72
2021/10/26 01:36:42;;;;;;;13.87;7.20;;;;;;;11.34;78.63;101036.53;5091462;28;20602;-73
2021/10/26 01:39:07;;;;;;;10.37;6.53;;;;;;;11.22;78.26;101027.38;5093039;28;20185;-73
2021/10/26 01:41:33;;;;;;;9.27;6.80;;;;;;;11.28;78.20;101016.34;5092941;28;20214;-73
2021/10/26 01:43:58;;;;;;;13.10;6.70;;;;;;;11.33;77.76;101025.00;5091868;28;20661;-72
2021/10/26 01:46:23;;;;;;;12.03;7.73;;;;;;;11.16;78.55;101020.56;5091620;28;20211;-73
2021/10/26 01:48:49;;;;;;;10.83;6.63;;;;;;;11.36;77.79;101035.50;5093764;28;20276;-72
2021/10/26 01:51:14;;;;;;;13.17;6.77;;;;;;;11.19;78.63;101031.06;5093252;28;20230;-72
2021/10/26 01:53:39;;;;;;;11.80;7.20;;;;;;;11.19;79.80;101028.41;5091756;28;20171;-72
2021/10/26 01:56:05;;;;;;;12.07;6.90;;;;;;;11.11;79.57;101022.56;5092836;28;20269;-72
2021/10/26 01:58:30;;;;;;;11.73;7.70;;;;;;;10.90;79.64;101023.69;5095588;28;20208;-72
2021/10/26 02:00:55;;;;;;;12.40;7.17;;;;;;;11.06;80.18;101031.78;5095678;28;20185;-72
2021/10/26 02:03:21;;;;;;;10.50;7.47;;;;;;;11.33;79.16;101026.81;5095727;28;20250;-72
2021/10/26 02:05:46;;;;;;;9.60;7.03;;;;;;;11.30;79.22;101025.16;5096992;28;20170;-73
2021/10/26 02:08:11;;;;;;;12.43;7.57;;;;;;;11.28;79.34;101027.03;5096885;28;20289;-72
2021/10/26 02:10:37;;;;;;;10.87;7.20;;;;;;;11.02;80.28;101023.06;5096762;28;20652;-72
2021/10/26 02:13:02;;;;;;;8.90;6.70;;;;;;;11.38;78.93;101025.59;5097060;28;20181;-72
2021/10/26 02:15:27;;;;;;;11.87;8.10;;;;;;;11.18;79.28;101018.66;5098258;28;20208;-72
2021/10/26 02:17:52;;;;;;;11.77;7.33;;;;;;;11.56;78.87;101027.31;5096440;28;20738;-73
2021/10/26 02:20:18;;;;;;;13.37;7.47;;;;;;;11.38;79.65;101020.25;5096621;28;20178;-72
2021/10/26 02:22:43;;;;;;;12.10;7.27;;;;;;;11.39;79.29;101022.00;5096630;28;20177;-73
2021/10/26 02:25:08;;;;;;;14.27;7.93;;;;;;;10.70;80.96;101014.00;5096728;28;20178;-73
2021/10/26 02:27:34;;;;;;;11.73;7.33;;;;;;;11.37;79.00;101021.22;5096730;28;20358;-73
2021/10/26 02:29:59;;;;;;;16.17;7.50;;;;;;;11.15;78.90;101023.28;5096617;28;20278;-71
2021/10/26 02:32:24;;;;;;;13.43;7.93;;;;;;;10.97;80.81;101022.44;5096665;28;20181;-73
2021/10/26 02:34:50;;;;;;;11.90;7.87;;;;;;;11.29;79.47;101020.75;5096317;28;20189;-72
2021/10/26 02:37:15;;;;;;;24.87;7.83;;;;;;;11.50;78.68;101032.09;5096376;28;20205;-72
2021/10/26 02:39:40;;;;;;;9.77;7.30;;;;;;;11.55;78.33;101036.28;5096738;28;20550;-73
2021/10/26 02:42:06;;;;;;;9.23;7.60;;;;;;;11.42;79.10;101024.50;5095235;28;20620;-73
2021/10/26 02:44:31;;;;;;;13.67;8.27;;;;;;;11.49;78.87;101028.56;5096387;28;20181;-73
2021/10/26 02:46:56;;;;;;;19.10;8.90;;;;;;;11.26;80.27;101028.94;5096312;28;20193;-72
2021/10/26 02:49:22;;;;;;;12.53;8.07;;;;;;;11.48;80.04;101034.00;5096143;28;20178;-72
2021/10/26 02:51:47;;;;;;;11.27;7.80;;;;;;;11.85;78.12;101036.44;5095067;28;20179;-72
2021/10/26 02:54:13;;;;;;;10.77;7.87;;;;;;;11.59;80.08;101029.81;5077830;28;20185;-72
2021/10/26 02:56:38;;;;;;;11.63;8.10;;;;;;;11.48;80.12;101031.31;5095942;28;20549;-73
2021/10/26 02:59:04;;;;;;;13.07;8.53;;;;;;;11.51;80.37;101031.16;5106414;28;20200;-72
2021/10/26 03:01:29;;;;;;;13.97;7.53;;;;;;;11.78;78.95;101029.69;5110950;28;20196;-73
2021/10/26 03:03:54;;;;;;;13.27;8.17;;;;;;;11.85;79.47;101035.56;5112078;28;20181;-75
2021/10/26 03:06:20;;;;;;;15.80;8.53;;;;;;;11.50;80.78;101027.63;5112218;28;20174;-72
2021/10/26 03:08:45;;;;;;;13.73;9.07;;;;;;;11.62;80.17;101023.44;5112661;28;20197;-72
2021/10/26 03:11:10;;;;;;;14.97;9.40;;;;;;;11.64;80.49;101018.88;5096589;28;20184;-72
2021/10/26 03:13:36;;;;;;;15.77;8.73;;;;;;;11.80;80.83;101013.56;5096455;28;20531;-73
2021/10/26 03:16:01;;;;;;;13.57;8.73;;;;;;;11.70;81.17;101015.00;5097283;28;20201;-71
2021/10/26 03:18:26;;;;;;;13.23;9.47;;;;;;;12.02;80.30;101024.81;5097086;28;20193;-74
2021/10/26 03:20:52;;;;;;;15.27;8.57;;;;;;;12.02;80.57;101019.47;5096790;28;20177;-72
2021/10/26 03:23:18;;;;;;;17.37;9.80;;;;;;;11.32;82.36;101012.56;5096622;28;20189;-73
2021/10/26 03:25:43;;;;;;;13.60;9.93;;;;;;;11.71;83.01;101032.75;5096744;28;20212;-72
2021/10/26 03:28:10;;;;;;;16.03;10.13;;;;;;;11.67;82.49;101032.06;5096946;28;20198;-72
2021/10/26 03:30:35;;;;;;;13.93;9.13;;;;;;;11.89;82.70;101026.44;5096550;28;20166;-72
2021/10/26 03:33:01;;;;;;;17.03;10.13;;;;;;;11.74;84.04;101024.56;5095012;28;20249;-72
2021/10/26 03:35:26;;;;;;;19.50;11.10;;;;;;;11.52;85.54;101031.09;5099684;28;20543;-72
2021/10/26 03:37:51;;;;;;;16.47;10.20;;;;;;;11.63;85.20;101029.66;5098267;28;20606;-72
2021/10/26 03:40:17;;;;;;;17.63;10.97;;;;;;;11.34;86.59;101028.53;5095693;28;20201;-72
2021/10/26 03:42:42;;;;;;;18.10;10.60;;;;;;;11.53;87.32;101026.63;5096072;28;20249;-72
2021/10/26 03:45:08;;;;;;;17.17;11.10;;;;;;;11.18;88.57;101028.47;5094234;28;20211;-73
2021/10/26 03:47:38;;;;;;;16.87;11.00;;;;;;;11.61;87.55;101039.56;5095009;28;20201;-72
2021/10/26 03:50:07;;;;;;;18.93;12.13;;;;;;;11.58;87.78;101038.78;5094978;28;20181;-73
2021/10/26 03:52:32;;;;;;;15.50;10.97;;;;;;;11.75;87.42;101037.84;5094166;28;20177;-73
2021/10/26 03:54:57;;;;;;;17.40;11.23;;;;;;;11.65;88.13;101035.78;5095466;28;20222;-72
2021/10/26 03:57:23;;;;;;;18.27;10.87;;;;;;;11.61;88.51;101036.88;5093649;28;20239;-72
2021/10/26 03:59:48;;;;;;;17.03;11.30;;;;;;;11.82;87.80;101033.06;5095104;28;20177;-72
2021/10/26 04:02:23;;;;;;;17.53;11.17;;;;;;;11.64;89.36;101028.69;5094795;28;20176;-73
2021/10/26 04:04:48;;;;;;;18.50;11.23;;;;;;;11.57;88.78;101029.03;5095473;28;20157;-73
2021/10/26 04:07:14;;;;;;;18.80;11.77;;;;;;;11.67;88.39;101026.72;5098019;28;20192;-73
2021/10/26 04:09:49;;;;;;;16.40;10.07;;;;;;;11.70;88.18;101031.03;5096871;28;20681;-72
2021/10/26 04:12:24;;;;;;;17.37;11.70;;;;;;;11.79;88.76;101026.06;5094180;28;20578;-72
2021/10/26 04:14:56;;;;;;;14.37;10.93;;;;;;;11.69;89.08;101027.50;5094863;28;20177;-72
2021/10/26 04:17:22;;;;;;;16.93;11.97;;;;;;;11.19;91.78;101015.03;5093489;28;20194;-73
2021/10/26 04:19:49;;;;;;;16.57;11.33;;;;;;;11.51;91.82;101029.34;5094024;28;20216;-72
2021/10/26 04:22:16;;;;;;;17.30;12.00;;;;;;;11.38;92.89;101022.06;5093723;28;20581;-73
2021/10/26 04:24:41;;;;;;;15.70;12.43;;;;;;;11.36;93.40;101018.63;5093363;28;20260;-72
2021/10/26 04:27:06;;;;;;;20.30;12.53;;;;;;;11.00;93.34;101011.59;5094832;28;20229;-72
2021/10/26 04:29:32;;;;;;;18.97;12.83;;;;;;;11.55;93.03;101020.25;5094775;28;20248;-73
2021/10/26 04:31:57;;;;;;;18.97;12.53;;;;;;;11.59;91.98;101024.47;5094831;28;20173;-73
2021/10/26 04:34:22;;;;;;;19.00;12.87;;;;;;;11.34;94.08;101021.38;5093117;28;20177;-73
2021/10/26 04:36:47;;;;;;;16.47;12.00;;;;;;;11.52;94.31;101020.41;5094042;28;20201;-72
2021/10/26 04:39:13;;;;;;;18.20;12.97;;;;;;;11.00;94.21;101022.28;5093883;28;20585;-72
2021/10/26 04:41:39;;;;;;;15.93;11.93;;;;;;;11.52;93.45;101035.53;5094077;28;20174;-73
2021/10/26 04:44:04;;;;;;;20.30;12.57;;;;;;;11.45;94.53;101024.31;5093772;28;20192;-73
2021/10/26 04:46:30;;;;;;;16.63;12.10;;;;;;;11.53;93.43;101022.13;5092626;28;20559;-73
2021/10/26 04:48:55;;;;;;;18.93;12.83;;;;;;;11.43;93.69;101025.34;5093928;28;20574;-73
2021/10/26 04:51:21;;;;;;;16.67;13.10;;;;;;;11.57;92.68;101022.81;5094070;28;20184;-73
2021/10/26 04:53:46;;;;;;;21.07;13.27;;;;;;;11.48;93.27;101024.16;5094106;28;20177;-73
2021/10/26 04:56:11;;;;;;;21.13;13.60;;;;;;;11.35;94.93;101033.78;5093834;28;20193;-73
2021/10/26 04:58:37;;;;;;;19.43;12.87;;;;;;;11.48;94.28;101032.19;5093640;28;20648;-72
2021/10/26 05:01:02;;;;;;;19.70;12.90;;;;;;;11.24;96.13;101037.03;5094233;28;20172;-74
2021/10/26 05:03:28;;;;;;;18.53;13.87;;;;;;;11.36;95.17;101030.16;5093890;28;20186;-73
2021/10/26 05:05:54;;;;;;;18.67;13.43;;;;;;;11.39;95.84;101023.78;5092773;28;20168;-74
2021/10/26 05:08:19;;;;;;;19.63;13.90;;;;;;;11.28;95.76;101027.91;5093666;28;20189;-73
2021/10/26 05:10:44;;;;;;;18.47;13.70;;;;;;;11.16;97.14;101033.91;5092660;28;20174;-73
2021/10/26 05:13:10;;;;;;;19.73;14.00;;;;;;;11.07;97.37;101036.16;5093999;28;20178;-73
2021/10/26 05:15:36;;;;;;;21.37;13.47;;;;;;;11.38;96.09;101027.41;5092078;28;20169;-69
2021/10/26 05:18:02;;;;;;;22.50;13.87;;;;;;;11.31;96.15;101039.38;5093086;28;20666;-68
2021/10/26 05:20:28;;;;;;;18.23;13.90;;;;;;;11.59;94.63;101037.84;5093061;28;20170;-68
2021/10/26 05:22:55;;;;;;;19.87;14.27;;;;;;;11.39;95.84;101042.50;5091917;28;20580;-68
2021/10/26 05:25:20;;;;;;;17.97;13.43;;;;;;;11.03;95.55;101031.94;5092187;28;20210;-68
2021/10/26 05:27:46;;;;;;;23.00;14.13;;;;;;;11.51;95.66;101045.38;5093817;28;20236;-67
2021/10/26 05:30:11;;;;;;;23.33;14.73;;;;;;;11.45;95.25;101044.84;5092105;28;20665;-67
2021/10/26 05:32:40;;;;;;;22.63;14.40;;;;;;;11.44;95.67;101041.31;5091614;28;20724;-67
2021/10/26 05:35:06;;;;;;;22.17;14.10;;;;;;;11.81;93.45;101047.38;5092870;28;20169;-67
2021/10/26 05:37:32;;;;;;;24.37;18.17;;;;;;;11.51;93.72;101045.38;5091630;28;20249;-67
2021/10/26 05:39:57;;;;;;;18.57;13.57;;;;;;;11.76;92.99;101049.41;5091974;28;20627;-73
2021/10/26 05:42:23;;;;;;;18.87;13.63;;;;;;;11.80;92.50;101042.97;5092040;28;20677;-72
2021/10/26 05:44:48;;;;;;;21.83;15.67;;;;;;;11.74;93.16;101043.28;5092923;28;20539;-72
2021/10/26 05:47:14;;;;;;;18.43;13.47;;;;;;;11.83;92.14;101054.38;5091368;28;20208;-71
2021/10/26 05:49:39;;;;;;;18.57;13.07;;;;;;;11.45;93.60;101047.53;5091473;28;20178;-71
2021/10/26 05:52:05;;;;;;;16.40;13.17;;;;;;;11.65;94.41;101058.03;5093185;28;20233;-71
2021/10/26 05:54:30;;;;;;;19.10;13.37;;;;;;;11.76;93.37;101055.63;5093150;28;20183;-70
2021/10/26 05:56:55;;;;;;;18.27;12.87;;;;;;;11.40;94.08;101061.13;5093111;28;20193;-71
2021/10/26 05:59:21;;;;;;;21.67;13.20;;;;;;;11.52;93.99;101057.84;5093008;28;20189;-71
2021/10/26 06:01:46;;;;;;;18.93;13.90;;;;;;;11.61;94.22;101066.28;5091873;28;20219;-72
2021/10/26 06:04:11;;;;;;;18.23;14.00;;;;;;;11.57;93.46;101061.13;5091748;28;20173;-71
2021/10/26 06:06:37;;;;;;;20.10;13.77;;;;;;;11.53;94.25;101066.72;5092953;28;20185;-71
2021/10/26 06:09:02;;;;;;;20.63;13.40;;;;;;;11.71;92.79;101072.88;5092565;28;20192;-71
2021/10/26 06:11:28;;;;;;;18.87;14.03;;;;;;;11.74;92.23;101080.72;5091500;28;20235;-71
2021/10/26 06:14:03;;;;;;;17.30;13.40;;;;;;;11.42;92.85;101075.28;5092976;28;20176;-71
2021/10/26 06:16:31;;;;;;;20.40;14.23;;;;;;;11.38;93.37;101073.72;5094166;28;20190;-72
2021/10/26 06:18:56;;;;;;;22.17;14.43;;;;;;;11.82;92.74;101079.38;5093641;28;20198;-71
2021/10/26 06:21:22;;;;;;;21.17;12.43;;;;;;;11.33;93.44;101069.56;5093434;28;20201;-72
2021/10/26 06:23:47;;;;;;;17.47;13.03;;;;;;;11.47;93.59;101081.25;5092212;28;20191;-72
2021/10/26 06:26:12;;;;;;;20.30;13.67;;;;;;;11.63;93.38;101083.97;5093167;28;20658;-71
2021/10/26 06:28:38;;;;;;;19.90;13.40;;;;;;;11.89;91.85;101085.25;5092788;28;20314;-71
2021/10/26 06:31:03;;;;;;;24.67;13.70;;;;;;;11.43;92.49;101081.47;5091550;28;20174;-72
2021/10/26 06:33:29;;;;;;;17.60;12.77;;;;;;;11.71;91.90;101080.91;5091377;28;20178;-72
2021/10/26 06:35:54;;;;;;;18.67;13.73;;;;;;;11.96;90.30;101088.50;5092597;28;20199;-72
2021/10/26 06:38:19;;;;;;;17.07;13.47;;;;;;;11.92;90.60;101094.97;5092468;28;20675;-71
2021/10/26 06:40:45;;;;;;;15.40;11.97;;;;;;;11.72;89.93;101094.19;5092853;28;20184;-72
2021/10/26 06:43:10;;;;;;;17.73;11.77;;;;;;;11.84;90.17;101092.69;5093140;28;20181;-72
2021/10/26 06:45:35;;;;;;;17.47;12.17;;;;;;;11.79;89.48;101092.94;5096341;28;20184;-72
2021/10/26 06:48:01;;;;;;;17.23;12.10;;;;;;;11.57;89.23;101098.53;5096013;28;20197;-72
2021/10/26 06:50:26;;;;;;;18.53;12.53;;;;;;;11.74;89.97;101100.31;5096159;28;20178;-73
2021/10/26 06:52:51;;;;;;;14.90;10.67;;;;;;;11.92;89.20;101098.50;5096150;28;20549;-72
2021/10/26 06:55:20;;;;;;;18.30;12.33;;;;;;;11.77;89.55;101104.63;5096297;28;20178;-72
2021/10/26 06:57:48;;;;;;;18.50;12.57;;;;;;;11.47;90.78;101107.97;5096015;28;20198;-71
2021/10/26 07:00:14;;;;;;;16.13;12.80;;;;;;;11.65;91.48;101118.66;5095297;28;20178;-72
2021/10/26 07:02:46;;;;;;;20.90;13.50;;;;;;;11.66;93.08;101126.59;5096162;28;20646;-72
2021/10/26 07:05:15;;;;;;;20.30;13.70;;;;;;;11.47;93.61;101125.81;5095863;28;20193;-71
2021/10/26 07:07:40;;;;;;;22.10;14.50;;;;;;;11.31;95.18;101128.41;5096088;28;20190;-71
2021/10/26 07:10:05;;;;;;;20.47;14.53;;;;;;;11.44;96.62;101134.84;5096085;28;20178;-72
2021/10/26 07:12:31;;;;;;;24.70;15.63;;;;;;;10.99;100.00;101145.22;5095965;28;20207;-72
2021/10/26 07:14:56;;;;;;;20.33;15.37;;;;;;;11.30;98.10;101141.88;5096661;28;20254;-71
2021/10/26 07:17:22;;;;;;;25.07;15.97;;;;;;;11.39;97.69;101138.72;5095041;28;20582;-73
2021/10/26 07:19:47;;;;;;;24.20;15.70;;;;;;;11.28;98.03;101139.28;5096197;28;20225;-71
2021/10/26 07:22:13;;;;;;;23.03;16.03;;;;;;;11.64;95.10;101133.84;5095893;28;20181;-72
2021/10/26 07:24:38;;;;;;;24.03;16.57;;;;;;;11.62;94.92;101138.41;5095731;28;20492;-72
2021/10/26 07:27:03;;;;;;;20.30;15.03;;;;;;;11.31;96.10;101139.13;5096933;28;20567;-72
2021/10/26 07:29:28;;;;;;;28.43;18.00;;;;;;;11.06;97.37;101136.81;5096047;28;20188;-71
2021/10/26 07:31:55;;;;;;;26.40;16.40;;;;;;;11.61;96.46;101146.50;5095970;28;20547;-72
2021/10/26 07:34:22;;;;;;;25.60;15.90;;;;;;;11.78;94.93;101142.00;5094479;28;20177;-72
2021/10/26 07:36:48;;;;;;;26.67;17.23;;;;;;;11.83;94.83;101142.63;5094407;28;20710;-70
2021/10/26 07:39:48;;;;;;;25.07;16.53;;;;;;;11.90;93.77;101137.84;5096000;28;20208;-70
2021/10/26 07:42:05;;;;;;;26.83;17.33;;;;;;;11.74;95.85;101128.84;5091474;28;20186;-72
2021/10/26 07:44:32;;;;;;;29.77;18.47;;;;;;;12.27;92.75;101125.16;5095818;28;20265;-72
2021/10/26 07:47:00;;;;;;;25.50;16.90;;;;;;;12.11;92.92;101131.31;5095012;28;20196;-72
2021/10/26 07:49:29;;;;;;;33.63;18.53;;;;;;;12.05;94.66;101137.00;5095220;28;20651;-72
2021/10/26 07:51:55;;;;;;;25.83;17.80;;;;;;;12.22;92.60;101133.41;5094936;28;20174;-72
2021/10/26 07:54:20;;;;;;;27.57;16.77;;;;;;;12.16;93.02;101129.25;5095041;28;20174;-72
2021/10/26 07:56:45;;;;;;;22.70;15.50;;;;;;;12.20;92.96;101129.94;5095291;28;20631;-70
2021/10/26 07:59:11;;;;;;;22.20;16.33;;;;;;;12.18;93.65;101134.50;5095487;28;20193;-72
2021/10/26 08:01:36;;;;;;;23.93;16.50;;;;;;;12.28;92.58;101132.22;5093860;28;20383;-72
2021/10/26 08:04:01;;;;;;;26.77;17.73;;;;;;;12.47;90.17;101127.56;5093685;28;20174;-71
2021/10/26 08:06:27;;;;;;;24.37;15.93;;;;;;;12.32;89.86;101125.75;5095160;28;20180;-72
2021/10/26 08:08:52;;;;;;;24.10;15.80;;;;;;;12.64;88.99;101123.94;5094989;28;20247;-72
2021/10/26 08:11:18;;;;;;;25.77;16.00;;;;;;;12.76;87.86;101124.09;5094841;28;20197;-72
2021/10/26 08:13:44;;;;;;;22.20;15.73;;;;;;;12.84;87.15;101129.88;5095575;28;20722;-73
2021/10/26 08:16:10;;;;;;;21.30;15.03;;;;;;;12.94;86.56;101132.00;5094501;28;20202;-72
2021/10/26 08:18:36;;;;;;;28.00;15.03;;;;;;;12.99;86.36;101135.28;5094609;28;20202;-72
2021/10/26 08:21:01;;;;;;;26.10;16.00;;;;;;;13.03;85.90;101131.50;5093001;28;20193;-72
2021/10/26 08:23:27;;;;;;;24.90;15.80;;;;;;;13.21;85.58;101126.91;5094264;28;20182;-72
2021/10/26 08:25:55;;;;;;;29.27;15.33;;;;;;;13.02;85.98;101132.47;5094479;28;20167;-72
2021/10/26 08:28:21;;;;;;;25.63;15.10;;;;;;;13.19;86.18;101129.66;5094681;28;20254;-72
2021/10/26 08:30:49;;;;;;;22.17;15.37;;;;;;;12.84;87.00;101119.16;5093155;28;20171;-74
2021/10/26 08:35:43;;;;;;;26.03;16.20;;;;;;;13.38;84.83;101133.00;5093021;28;20257;-71
2021/10/26 08:38:08;;;;;;;23.27;15.83;;;;;;;13.67;83.75;101141.09;5093870;28;20247;-72
2021/10/26 08:40:37;;;;;;;22.53;15.67;;;;;;;13.91;82.76;101146.78;5094408;28;20170;-72
2021/10/26 08:43:04;;;;;;;24.90;16.23;;;;;;;13.55;83.29;101147.19;5093265;28;20178;-71
2021/10/26 08:45:31;;;;;;;25.93;15.73;;;;;;;13.65;83.18;101148.38;5092810;28;20551;-71
2021/10/26 08:47:59;;;;;;;26.07;16.13;;;;;;;13.90;82.24;101151.28;5094348;28;20202;-71
2021/10/26 08:50:25;;;;;;;26.50;15.77;;;;;;;13.66;83.29;101145.59;5092755;28;20229;-71
2021/10/26 08:52:51;;;;;;;25.90;18.23;;;;;;;13.72;83.09;101147.03;5093901;28;20177;-71
2021/10/26 08:55:18;;;;;;;26.90;15.87;;;;;;;13.65;83.63;101149.22;5092592;28;20535;-72
2021/10/26 08:57:43;;;;;;;23.37;16.90;;;;;;;13.70;82.85;101148.94;5093656;28;20202;-72
2021/10/26 09:00:10;;;;;;;28.47;16.90;;;;;;;13.86;83.12;101155.13;5096528;28;20564;-72
2021/10/26 09:02:39;;;;;;;26.60;16.73;;;;;;;13.75;82.48;101152.19;5094893;28;20296;-72
2021/10/26 09:05:14;;;;;;;26.63;15.83;;;;;;;13.79;83.21;101160.94;5095920;28;20174;-73
2021/10/26 09:07:39;;;;;;;25.90;16.30;;;;;;;13.63;83.29;101148.44;5092605;28;20285;-71
2021/10/26 09:10:10;;;;;;;30.43;16.50;;;;;;;13.77;83.13;101164.59;5094002;28;20217;-71
2021/10/26 09:17:48;;;;;;;23.60;15.20;;;;;;;13.21;85.09;101159.06;5094106;28;20284;-72
2021/10/26 09:20:21;;;;;;;26.47;15.67;;;;;;;13.52;84.63;101167.03;5100407;28;20197;-72
2021/10/26 09:22:49;;;;;;;22.60;15.67;;;;;;;13.56;84.48;101156.97;5099595;28;20162;-71
2021/10/26 09:25:15;;;;;;;21.67;15.20;;;;;;;13.18;85.89;101165.47;5100584;28;20173;-72
2021/10/26 09:27:40;;;;;;;23.60;16.00;;;;;;;13.59;84.21;101170.19;5099883;28;20205;-71
2021/10/26 09:30:11;;;;;;;26.90;16.93;;;;;;;13.67;83.98;101174.13;5107923;28;20174;-71
2021/10/26 09:32:46;;;;;;;21.70;14.30;;;;;;;14.19;82.26;101170.94;5108278;28;20200;-70
2021/10/26 09:35:13;;;;;;;25.87;14.83;;;;;;;14.17;82.04;101164.81;5109737;28;20170;-70
2021/10/26 09:37:52;;;;;;;24.50;14.33;;;;;;;14.26;81.74;101169.59;5108997;28;20258;-71
2021/10/26 09:40:18;;;;;;;24.67;15.93;;;;;;;14.39;80.78;101162.47;5107517;28;20166;-71
2021/10/26 09:42:47;;;;;;;22.20;14.20;;;;;;;14.15;80.20;101147.09;5106773;28;20226;-70
2021/10/26 09:45:28;;;;;;;20.97;15.13;;;;;;;14.45;81.62;101157.72;5107506;28;20178;-72
2021/10/26 09:47:55;;;;;;;22.87;15.20;;;;;;;14.73;79.57;101146.06;5106691;28;20247;-72
2021/10/26 09:50:20;;;;;;;21.03;14.50;;;;;;;14.57;80.23;101151.56;5107441;28;20219;-72
2021/10/26 09:52:49;;;;;;;21.30;14.47;;;;;;;14.56;80.29;101155.22;5102639;28;20577;-71
2021/10/26 09:55:19;;;;;;;23.30;15.17;;;;;;;14.17;81.42;101147.84;5099707;28;20176;-71
2021/10/26 09:57:47;;;;;;;23.50;14.87;;;;;;;14.92;79.66;101162.72;5102740;28;20194;-73
2021/10/26 10:00:14;;;;;;;23.07;14.40;;;;;;;15.02;78.42;101158.44;5103511;28;20167;-70
2021/10/26 10:02:40;;;;;;;23.00;14.20;;;;;;;14.96;77.99;101148.09;5086771;28;20174;-73
2021/10/26 10:05:07;;;;;;;23.23;15.03;;;;;;;15.40;77.10;101160.41;5104387;28;20179;-72
2021/10/26 10:07:35;;;;;;;21.70;14.23;;;;;;;15.32;77.17;101167.16;5095414;28;20603;-74
2021/10/26 10:10:07;;;;;;;21.00;14.77;;;;;;;15.40;76.87;101153.19;5096857;28;20177;-73
2021/10/26 10:12:33;;;;;;;20.27;14.43;;;;;;;15.32;77.33;101150.16;5095014;28;20151;-71
2021/10/26 10:14:59;;;;;;;21.80;13.67;;;;;;;15.40;76.82;101157.72;5098590;28;20208;-71
2021/10/26 10:17:26;;;;;;;18.43;14.40;;;;;;;15.55;76.33;101154.81;5107752;28;20227;-71
2021/10/26 10:19:52;;;;;;;23.97;14.80;;;;;;;15.36;77.69;101157.06;5111502;28;20181;-70
2021/10/26 10:22:21;;;;;;;24.30;15.67;;;;;;;15.16;77.66;101153.00;5110622;28;20178;-72
2021/10/26 10:24:49;;;;;;;19.73;13.67;;;;;;;15.32;77.28;101150.16;5110266;28;20174;-72
2021/10/26 10:27:14;;;;;;;26.10;15.57;;;;;;;15.54;76.38;101157.63;5109355;28;20182;-72
2021/10/26 10:29:40;;;;;;;21.00;15.23;;;;;;;15.36;76.94;101153.50;5107158;28;20181;-72
2021/10/26 10:32:06;;;;;;;21.70;15.53;;;;;;;15.13;78.26;101171.16;5112132;28;20170;-69
2021/10/26 10:34:32;;;;;;;23.73;16.07;;;;;;;14.74;79.93;101153.16;5103024;28;20315;-72
2021/10/26 10:36:58;;;;;;;21.63;15.87;;;;;;;15.26;79.06;101161.34;5096904;28;20272;-72
2021/10/26 10:39:29;;;;;;;25.93;17.30;;;;;;;15.14;79.74;101157.63;5097374;28;20596;-72
2021/10/26 10:42:18;;;;;;;25.57;16.80;;;;;;;15.04;79.46;101156.53;5097601;28;20159;-72
2021/10/26 10:44:44;;;;;;;23.10;15.43;;;;;;;15.01;80.00;101154.91;5096182;28;20173;-73
2021/10/26 10:47:30;;;;;;;20.93;15.33;;;;;;;14.90;80.90;101159.28;5096629;28;20194;-70
2021/10/26 10:49:56;;;;;;;23.33;15.67;;;;;;;14.76;80.73;101146.72;5096373;28;20295;-72
2021/10/26 10:52:31;;;;;;;26.77;15.83;;;;;;;15.16;80.01;101157.53;5096481;28;20618;-72
2021/10/26 10:54:57;;;;;;;23.03;15.80;;;;;;;17.01;73.33;101158.78;5102939;28;20159;-72
2021/10/26 10:57:32;;;;;;;20.90;15.03;;;;;;;17.35;71.00;101138.22;5100359;28;20215;-71
2021/10/26 10:59:59;;;;;;;24.57;14.83;;;;;;;18.03;68.49;101141.00;5094842;28;20162;-71
2021/10/26 11:02:43;;;;;;;21.30;14.07;;;;;;;17.84;68.40;101137.16;5094572;28;20214;-71
2021/10/26 11:05:38;;;;;;;18.83;13.97;;;;;;;18.36;67.35;101132.03;5095886;28;20166;-71
2021/10/26 11:08:05;;;;;;;20.07;14.00;;;;;;;17.96;67.43;101123.56;5095417;28;20193;-71
2021/10/26 11:10:48;;;;;;;18.70;14.37;;;;;;;17.76;68.67;101127.81;5095836;28;20175;-73
2021/10/26 11:13:17;;;;;;;22.07;14.07;;;;;;;17.03;70.19;101122.66;5096385;28;20531;-72
2021/10/26 11:15:43;;;;;;;21.37;14.00;;;;;;;16.20;72.62;101106.31;5095760;28;20247;-72
2021/10/26 11:18:08;;;;;;;19.83;14.70;;;;;;;15.53;75.63;101120.91;5095925;28;20558;-73